This is the latest recevied weather packets stored in our database for station/object KB1FFS. If no packets are shown the sender has not sent any weather packets the latest 10 day(s).
| Time | Temp. | Humidity | Pressure | Rain* | Wind** | Luminosity | Snow |
|---|---|---|---|---|---|---|---|
| 1777770650 | 22.22° C | 46% | 1019.7 hPa | 0 mm | - | 3 W/m² | - |
| 1777770345 | 22.78° C | 45% | 1019.7 hPa | 0 mm | - | 5 W/m² | - |
| 1777770043 | 22.78° C | 43% | 1019.7 hPa | 0 mm | - | 8 W/m² | - |
| 1777769740 | 22.78° C | 42% | 1019.7 hPa | 0 mm | - | 11 W/m² | - |
| 1777769438 | 23.33° C | 41% | 1019.7 hPa | 0 mm | - | 14 W/m² | - |
| 1777769133 | 23.33° C | 39% | 1019.6 hPa | 0 mm | - | 17 W/m² | - |
| 1777768832 | 23.33° C | 39% | 1019.8 hPa | 0 mm | - | 20 W/m² | - |
| 1777768528 | 23.89° C | 38% | 1019.8 hPa | 0 mm | - | 23 W/m² | - |
| 1777768226 | 23.89° C | 38% | 1019.6 hPa | 0 mm | - | 26 W/m² | - |
| 1777767922 | 24.44° C | 37% | 1019.7 hPa | 0 mm | - | 30 W/m² | - |
| 1777767619 | 24.44° C | 37% | 1019.6 hPa | 0 mm | - | 33 W/m² | - |
| 1777767316 | 24.44° C | 36% | 1019.6 hPa | 0 mm | - | 36 W/m² | - |
| 1777767013 | 25° C | 36% | 1019.6 hPa | 0 mm | - | 39 W/m² | - |
| 1777766710 | 26.11° C | 35% | 1019.9 hPa | 0 mm | - | 42 W/m² | - |
| 1777766407 | 26.67° C | 34% | 1019.7 hPa | 0 mm | - | 125 W/m² | - |
| 1777766104 | 27.22° C | 32% | 1019.8 hPa | 0 mm | - | 136 W/m² | - |
| 1777765801 | 27.22° C | 31% | 1019.8 hPa | 0 mm | - | 151 W/m² | - |
| 1777765497 | 27.22° C | 32% | 1019.8 hPa | 0 mm | - | 167 W/m² | - |
| 1777765195 | 27.22° C | 31% | 1019.7 hPa | 0 mm | - | 182 W/m² | - |
| 1777764896 | 27.22° C | 31% | 1019.9 hPa | 0 mm | - | 213 W/m² | - |
| 1777764593 | 27.22° C | 32% | 1019.9 hPa | 0 mm | - | 236 W/m² | - |
| 1777764289 | 26.11° C | 34% | 1020.1 hPa | 0 mm | - | 255 W/m² | - |
| 1777763986 | 25.56° C | 34% | 1019.9 hPa | 0 mm | - | 234 W/m² | - |
| 1777763683 | 26.67° C | 33% | 1020 hPa | 0 mm | - | 83 W/m² | - |
| 1777763382 | 28.33° C | 30% | 1019.9 hPa | 0 mm | - | 101 W/m² | - |
* Rain latest hour (hover to see other rain measurements)
** Current wind speed in m/s (hover to see current wind gust speed)